Time;durP1;ratioP1;P1;durP2;ratioP2;P2;SDS_P1;SDS_P2;PMS_P1;PMS_P2;Temp;Humidity;BMP_temperature;BMP_pressure;BME280_temperature;BME280_humidity;BME280_pressure;Samples;Min_cycle;Max_cycle;Signal;HPM_P1;HPM_P2
2023/06/21 09:11:23;;;;;;;7.63;6.40;;;;;;;29.77;44.97;98924.06;6902019;28;1248950;-85
2023/06/21 09:14:44;;;;;;;7.93;5.70;;;;;;;29.73;47.13;98939.75;6923823;28;20221;-85
2023/06/21 09:18:11;;;;;;;10.47;6.03;;;;;;;29.40;48.48;98941.34;6922663;28;20255;-82
2023/06/21 09:21:33;;;;;;;17.57;7.40;;;;;;;29.16;50.76;98929.84;6923401;28;20681;-86
2023/06/21 09:24:57;;;;;;;8.63;6.87;;;;;;;29.59;49.01;98938.25;6922248;28;20381;-87
2023/06/21 09:28:20;;;;;;;11.13;7.80;;;;;;;29.28;50.69;98918.91;6921800;28;20242;-86
2023/06/21 09:31:41;;;;;;;12.27;8.60;;;;;;;27.22;55.56;98891.28;6923250;28;20243;-87
2023/06/21 09:35:04;;;;;;;12.47;8.90;;;;;;;27.68;54.58;98891.88;6935223;28;20206;-82
2023/06/21 09:38:28;;;;;;;13.80;8.60;;;;;;;27.48;56.63;98893.16;6950410;28;20273;-83
2023/06/21 09:41:49;;;;;;;13.40;8.37;;;;;;;28.08;56.88;98904.78;6950210;28;20215;-85
2023/06/21 09:45:13;;;;;;;15.33;10.97;;;;;;;28.30;55.83;98908.34;6943316;28;20230;-87
2023/06/21 09:48:36;;;;;;;12.37;10.03;;;;;;;28.18;55.59;98898.97;6949980;28;20246;-86
2023/06/21 09:51:57;;;;;;;12.40;10.20;;;;;;;27.86;57.08;98888.97;6950625;28;20206;-84
2023/06/21 09:55:21;;;;;;;8.87;7.63;;;;;;;26.97;58.31;98778.34;6948624;28;20291;-88
2023/06/21 09:58:43;;;;;;;6.67;5.13;;;;;;;26.74;56.51;98818.16;6949133;28;20224;-84
2023/06/21 10:02:07;;;;;;;6.83;5.90;;;;;;;26.13;58.84;98835.09;6950714;28;20220;-86
2023/06/21 10:05:28;;;;;;;8.00;5.20;;;;;;;25.77;59.75;98781.59;6949895;28;20799;-84
2023/06/21 10:08:51;;;;;;;8.87;5.57;;;;;;;26.79;58.18;98854.00;6950020;28;20314;-86
2023/06/21 10:12:12;;;;;;;8.07;6.00;;;;;;;27.09;58.32;98883.81;6945474;28;20219;-83
2023/06/21 10:15:34;;;;;;;10.13;7.47;;;;;;;26.01;59.65;98798.06;6932460;28;20236;-85
2023/06/21 10:18:59;;;;;;;9.43;7.30;;;;;;;26.34;59.57;98860.41;6928189;28;20274;-87
2023/06/21 10:22:21;;;;;;;9.23;7.57;;;;;;;26.82;59.69;98942.75;6953345;28;20200;-84
2023/06/21 10:25:45;;;;;;;12.93;7.70;;;;;;;27.15;58.49;98924.91;6949639;28;20689;-85
2023/06/21 10:29:08;;;;;;;9.60;6.57;;;;;;;27.18;57.80;98945.66;6944575;28;20226;-86
2023/06/21 10:32:32;;;;;;;14.23;8.67;;;;;;;26.94;60.13;98959.66;6922338;28;20199;-87
2023/06/21 10:35:57;;;;;;;10.07;7.67;;;;;;;26.44;60.15;98898.94;6920454;28;20308;-86
2023/06/21 10:39:21;;;;;;;10.00;7.90;;;;;;;27.43;57.17;98979.16;6945955;28;20314;-85
2023/06/21 10:42:42;;;;;;;10.07;8.57;;;;;;;27.04;60.24;98981.63;6947358;28;20281;-86
2023/06/21 10:46:05;;;;;;;14.23;8.07;;;;;;;27.46;57.99;98994.34;6962752;28;20756;-87
2023/06/21 10:49:27;;;;;;;10.53;7.73;;;;;;;27.41;58.49;98986.97;6971963;28;20301;-87
2023/06/21 10:52:53;;;;;;;10.47;8.60;;;;;;;26.70;58.66;98908.41;6973089;28;20901;-87
2023/06/21 10:56:16;;;;;;;17.40;11.77;;;;;;;26.55;59.88;98912.28;6971844;28;20218;-85
2023/06/21 10:59:38;;;;;;;16.60;12.47;;;;;;;26.11;61.89;99005.13;6947298;28;20234;-84
2023/06/21 11:03:12;;;;;;;18.27;14.10;;;;;;;26.05;63.70;98974.00;7083936;27;20532;-83
2023/06/21 11:06:37;;;;;;;14.40;11.90;;;;;;;26.70;61.22;98995.00;7082963;28;20202;-81
2023/06/21 11:10:04;;;;;;;14.73;13.23;;;;;;;26.55;60.57;98948.25;7069650;28;20269;-84
2023/06/21 11:13:35;;;;;;;18.73;13.60;;;;;;;26.16;61.92;99000.34;7062172;28;20207;-88
2023/06/21 11:17:08;;;;;;;14.23;12.13;;;;;;;26.85;61.40;98975.34;7081971;28;20198;-84
2023/06/21 11:20:34;;;;;;;14.43;12.97;;;;;;;27.33;58.82;98998.78;7086766;27;20233;-85
2023/06/21 11:23:56;;;;;;;14.90;13.13;;;;;;;26.51;60.61;99009.97;7087148;27;20204;-86
2023/06/21 11:27:18;;;;;;;15.27;13.20;;;;;;;26.63;60.68;98899.72;7085968;28;20208;-84
2023/06/21 11:30:39;;;;;;;13.77;11.60;;;;;;;28.23;57.73;99001.44;7084918;28;20286;-85
2023/06/21 11:34:03;;;;;;;12.80;11.30;;;;;;;28.50;55.93;98949.47;7083105;27;20221;-85
2023/06/21 11:37:34;;;;;;;12.70;10.90;;;;;;;28.56;54.20;98886.31;7085813;27;20649;-87
2023/06/21 11:40:56;;;;;;;15.70;11.20;;;;;;;28.49;54.00;98960.88;7085497;27;20224;-84
2023/06/21 11:44:21;;;;;;;13.87;11.47;;;;;;;28.52;53.22;98902.78;7085929;28;20207;-87
2023/06/21 11:47:43;;;;;;;13.70;10.63;;;;;;;28.91;51.50;99001.91;7084137;27;20196;-84
2023/06/21 11:51:09;;;;;;;14.03;10.00;;;;;;;27.79;53.38;99004.16;7085342;28;20261;-87
2023/06/21 11:54:33;;;;;;;10.40;9.30;;;;;;;28.03;52.90;98988.91;7086371;27;20573;-86
2023/06/21 11:57:58;;;;;;;12.97;9.30;;;;;;;28.35;53.88;98993.34;7085941;28;20205;-87
2023/06/21 12:01:20;;;;;;;11.80;10.57;;;;;;;28.60;53.28;98985.22;7087445;28;20231;-87
2023/06/21 12:04:42;;;;;;;9.70;8.70;;;;;;;28.63;50.63;98948.53;7089505;28;20230;-87
2023/06/21 12:08:04;;;;;;;12.77;11.23;;;;;;;28.25;51.84;98988.09;7088156;28;20193;-87
2023/06/21 12:11:27;;;;;;;10.13;9.13;;;;;;;28.24;52.37;98967.03;7083824;28;20311;-87
2023/06/21 12:14:49;;;;;;;9.70;8.70;;;;;;;28.90;49.49;98880.91;7061438;28;20202;-85
2023/06/21 12:18:10;;;;;;;9.60;8.67;;;;;;;30.09;48.70;98986.72;7061863;28;20271;-86
2023/06/21 12:21:34;;;;;;;11.83;9.50;;;;;;;30.94;46.81;98955.97;7060957;28;20230;-85
2023/06/21 12:24:56;;;;;;;10.37;9.37;;;;;;;30.96;45.29;98915.50;7061439;28;20214;-82
2023/06/21 12:28:31;;;;;;;10.20;9.17;;;;;;;30.96;44.61;98870.13;7061100;28;20203;-85
2023/06/21 12:31:56;;;;;;;10.93;9.70;;;;;;;30.82;46.16;98994.84;7044183;28;20193;-86
2023/06/21 12:35:18;;;;;;;13.87;11.17;;;;;;;30.06;47.40;98965.94;7050116;28;20259;-86
2023/06/21 12:38:40;;;;;;;11.70;10.50;;;;;;;30.28;47.48;98917.66;7033332;28;20225;-85
2023/06/21 12:42:02;;;;;;;10.17;9.27;;;;;;;30.67;46.55;98976.69;7033343;28;20320;-85
2023/06/21 12:45:27;;;;;;;14.37;10.30;;;;;;;30.44;47.69;98983.59;7032422;28;20576;-86
2023/06/21 12:48:52;;;;;;;10.43;9.33;;;;;;;31.70;44.76;98977.03;7032261;28;20220;-87
2023/06/21 12:52:14;;;;;;;9.77;7.97;;;;;;;31.70;42.36;98915.69;7033906;28;20201;-86
2023/06/21 12:55:46;;;;;;;8.97;8.07;;;;;;;32.32;41.82;98970.34;7035297;28;20230;-87
2023/06/21 12:59:08;;;;;;;9.63;8.70;;;;;;;32.72;40.77;98979.00;7038161;28;20219;-87
2023/06/21 13:02:31;;;;;;;8.83;7.83;;;;;;;32.58;40.36;98958.94;7036892;28;20275;-86
2023/06/21 13:05:52;;;;;;;13.07;9.20;;;;;;;33.14;39.68;98972.91;7035399;28;20235;-86
2023/06/21 13:09:14;;;;;;;9.10;8.20;;;;;;;33.05;39.08;98975.00;7031477;28;20300;-85
2023/06/21 13:12:38;;;;;;;10.53;8.57;;;;;;;31.93;40.36;98972.81;7032156;28;20229;-86
2023/06/21 13:15:59;;;;;;;8.30;7.60;;;;;;;32.53;40.30;98967.53;7031996;28;20203;-86
2023/06/21 13:19:25;;;;;;;9.47;8.50;;;;;;;33.06;39.37;98961.84;7032664;28;20715;-86
2023/06/21 13:22:46;;;;;;;8.93;7.83;;;;;;;32.93;39.21;98977.78;7034048;28;20296;-84
2023/06/21 13:26:08;;;;;;;8.57;7.67;;;;;;;33.28;38.12;98967.00;7030585;28;20231;-86
2023/06/21 13:29:30;;;;;;;10.80;8.10;;;;;;;33.47;36.34;98964.44;7030790;28;20225;-86
2023/06/21 13:32:52;;;;;;;9.40;7.80;;;;;;;32.31;39.72;98885.00;7031949;28;20191;-87
2023/06/21 13:36:15;;;;;;;10.30;8.10;;;;;;;32.43;40.36;98963.19;7031722;28;20248;-88
2023/06/21 13:39:36;;;;;;;9.60;7.97;;;;;;;31.23;43.37;98970.78;7031635;28;20223;-87
2023/06/21 13:42:59;;;;;;;9.10;8.20;;;;;;;32.02;41.82;98963.22;7034015;28;20223;-85
2023/06/21 13:46:20;;;;;;;10.30;9.30;;;;;;;32.37;39.66;98975.72;7031538;28;20238;-85
2023/06/21 13:49:48;;;;;;;10.13;8.87;;;;;;;31.86;42.22;98969.75;7030134;28;20318;-84
2023/06/21 13:53:11;;;;;;;10.33;8.23;;;;;;;31.75;40.97;98969.34;7030743;28;20189;-85
2023/06/21 13:56:34;;;;;;;8.97;7.77;;;;;;;31.82;41.66;98966.84;7030234;28;20195;-86
2023/06/21 13:59:56;;;;;;;8.57;7.73;;;;;;;31.49;41.13;98965.06;7029585;28;20227;-85
2023/06/21 14:03:18;;;;;;;8.97;7.17;;;;;;;32.72;38.23;98954.66;7030512;28;20230;-85
2023/06/21 14:06:40;;;;;;;11.63;7.70;;;;;;;33.19;37.16;98922.38;7047702;28;20218;-85
2023/06/21 14:10:09;;;;;;;8.13;6.80;;;;;;;32.29;38.77;98923.59;7052707;28;20223;-85
2023/06/21 14:13:31;;;;;;;8.40;7.60;;;;;;;32.70;39.21;98914.28;7058460;28;20203;-86
2023/06/21 14:16:52;;;;;;;10.03;8.13;;;;;;;32.45;39.13;98951.69;7057083;28;20254;-86
2023/06/21 14:20:14;;;;;;;8.70;7.90;;;;;;;32.42;39.12;98952.38;7057779;28;20230;-86
2023/06/21 14:23:36;;;;;;;9.47;7.57;;;;;;;31.59;39.92;98947.94;7057361;28;20659;-85
2023/06/21 14:26:59;;;;;;;8.90;6.57;;;;;;;31.71;40.05;98926.53;7056123;28;20296;-86
2023/06/21 14:30:20;;;;;;;10.37;7.33;;;;;;;31.69;39.50;98948.38;7049973;28;20249;-84
2023/06/21 14:33:42;;;;;;;8.73;7.57;;;;;;;32.18;38.67;98950.28;7057494;28;20336;-85
2023/06/21 14:37:03;;;;;;;8.93;7.60;;;;;;;31.88;39.33;98940.38;7056934;28;20242;-85
2023/06/21 14:40:25;;;;;;;8.73;7.33;;;;;;;32.13;39.62;98933.75;7057907;28;20306;-85
2023/06/21 14:43:48;;;;;;;8.03;7.27;;;;;;;31.96;40.18;98945.03;7057877;28;20317;-85
2023/06/21 14:47:09;;;;;;;8.53;7.60;;;;;;;32.06;39.50;98952.19;7057315;28;20215;-86
2023/06/21 14:50:31;;;;;;;8.30;7.07;;;;;;;31.07;41.33;98879.72;7057954;28;20379;-86
2023/06/21 14:53:53;;;;;;;7.93;7.13;;;;;;;31.48;40.85;98947.50;7057669;28;20744;-86
2023/06/21 14:57:14;;;;;;;7.63;6.93;;;;;;;31.54;39.48;98861.72;7057765;28;20577;-85
2023/06/21 15:00:37;;;;;;;10.23;7.40;;;;;;;32.27;39.14;98925.94;7057427;28;20338;-86
2023/06/21 15:03:59;;;;;;;7.10;6.50;;;;;;;31.93;39.35;98936.53;7061007;28;20303;-86
2023/06/21 15:07:23;;;;;;;10.13;7.20;;;;;;;30.71;41.18;98890.56;7063593;28;20637;-85
2023/06/21 15:10:44;;;;;;;8.60;7.20;;;;;;;31.64;39.70;98914.28;7063435;28;20221;-85
2023/06/21 15:14:08;;;;;;;7.70;6.90;;;;;;;30.75;41.04;98938.84;7062819;28;20303;-85
2023/06/21 15:17:31;;;;;;;9.10;6.80;;;;;;;30.96;41.45;98946.13;7047028;28;20208;-84
2023/06/21 15:20:53;;;;;;;7.40;6.60;;;;;;;31.64;41.03;98933.78;7036209;28;20226;-82
2023/06/21 15:24:15;;;;;;;9.07;7.03;;;;;;;32.18;38.91;98938.28;7038043;28;20207;-81
2023/06/21 15:27:36;;;;;;;8.83;6.93;;;;;;;32.01;39.38;98938.47;7037538;28;20216;-83
2023/06/21 15:30:58;;;;;;;8.63;6.40;;;;;;;32.17;38.82;98919.91;7037655;28;20231;-82
2023/06/21 15:34:21;;;;;;;9.30;7.10;;;;;;;31.66;39.98;98926.72;7034980;28;20215;-82
2023/06/21 15:37:43;;;;;;;7.00;6.37;;;;;;;30.84;41.71;98897.88;7034679;28;20270;-83
2023/06/21 15:41:04;;;;;;;7.10;6.07;;;;;;;31.33;40.02;98906.31;7037818;28;20232;-82
2023/06/21 15:44:26;;;;;;;9.30;6.60;;;;;;;31.76;38.97;98901.25;7035148;28;20288;-83
2023/06/21 15:47:48;;;;;;;7.87;6.80;;;;;;;31.86;38.06;98903.66;7038557;28;20202;-82
2023/06/21 15:51:11;;;;;;;7.23;6.00;;;;;;;31.99;38.80;98894.16;7042391;28;20698;-82
2023/06/21 15:54:32;;;;;;;7.07;5.80;;;;;;;32.63;38.41;98911.25;7041423;28;20732;-83
2023/06/21 15:57:54;;;;;;;6.17;5.67;;;;;;;33.04;37.46;98920.28;7048364;28;20685;-83
2023/06/21 16:01:16;;;;;;;6.60;6.00;;;;;;;33.32;36.44;98915.63;7062386;28;20275;-84
2023/06/21 16:04:38;;;;;;;7.53;5.67;;;;;;;32.69;37.56;98910.69;7061597;28;20226;-84
2023/06/21 16:08:01;;;;;;;8.43;6.37;;;;;;;32.11;38.07;98908.16;7037454;28;20254;-84
2023/06/21 16:11:22;;;;;;;8.07;5.57;;;;;;;32.20;38.06;98911.66;7036422;28;20310;-85
2023/06/21 16:14:44;;;;;;;6.83;6.23;;;;;;;32.14;38.37;98901.88;7044114;28;20258;-84
2023/06/21 16:18:05;;;;;;;6.90;6.20;;;;;;;32.30;38.17;98905.69;7056967;28;20216;-83
2023/06/21 16:21:27;;;;;;;6.83;6.17;;;;;;;33.00;36.13;98885.00;7036338;28;20235;-83
2023/06/21 16:24:50;;;;;;;6.60;5.90;;;;;;;32.50;36.40;98835.03;7058054;28;20200;-82
2023/06/21 16:28:13;;;;;;;6.23;5.53;;;;;;;33.08;36.63;98900.84;7063439;28;20203;-83
2023/06/21 16:31:37;;;;;;;8.67;6.50;;;;;;;32.93;35.94;98902.34;7062260;28;20209;-83
2023/06/21 16:34:59;;;;;;;9.20;6.00;;;;;;;32.24;37.58;98909.00;7061729;28;20531;-84
2023/06/21 16:38:21;;;;;;;7.10;6.30;;;;;;;32.64;37.49;98905.31;7061911;28;20212;-84
2023/06/21 16:41:44;;;;;;;7.17;6.30;;;;;;;31.32;38.49;98795.19;7062569;28;20228;-85
2023/06/21 16:45:07;;;;;;;8.73;6.07;;;;;;;31.29;38.72;98807.00;7061620;28;20204;-84
2023/06/21 16:48:28;;;;;;;6.53;5.60;;;;;;;32.25;38.29;98905.91;7060284;28;20569;-83
2023/06/21 16:51:50;;;;;;;8.03;5.87;;;;;;;32.92;36.25;98870.00;7053790;28;20256;-84
2023/06/21 16:55:11;;;;;;;6.37;5.77;;;;;;;32.67;37.28;98906.59;7057176;28;20247;-84
2023/06/21 16:58:34;;;;;;;10.60;5.90;;;;;;;32.97;37.29;98900.47;7061240;28;20209;-85
2023/06/21 17:01:56;;;;;;;8.70;6.20;;;;;;;32.91;36.86;98903.88;7060894;28;20256;-85
2023/06/21 17:05:18;;;;;;;6.93;5.60;;;;;;;32.77;37.09;98887.44;7060381;28;20302;-85
2023/06/21 17:08:40;;;;;;;7.30;6.37;;;;;;;30.50;40.19;98742.13;7059316;28;20572;-85
2023/06/21 17:12:02;;;;;;;9.23;6.70;;;;;;;30.44;42.25;98858.34;7059839;28;20294;-85
2023/06/21 17:15:25;;;;;;;6.90;6.30;;;;;;;29.99;44.24;98867.44;7059914;28;20250;-84
2023/06/21 17:18:48;;;;;;;7.53;6.73;;;;;;;30.93;41.60;98842.94;7059253;28;20226;-86
2023/06/21 17:22:11;;;;;;;7.20;6.50;;;;;;;30.87;41.23;98794.97;7064847;28;20225;-86
2023/06/21 17:25:32;;;;;;;7.07;5.83;;;;;;;30.66;41.71;98810.00;7066758;28;20208;-85
2023/06/21 17:28:55;;;;;;;7.00;6.30;;;;;;;30.76;41.63;98826.31;7062081;28;20271;-85
2023/06/21 17:32:18;;;;;;;7.50;6.60;;;;;;;30.35;41.83;98853.97;7063557;28;20265;-86
2023/06/21 17:35:39;;;;;;;9.43;6.40;;;;;;;30.71;41.14;98777.22;7039289;28;20706;-88
2023/06/21 17:39:01;;;;;;;8.90;6.50;;;;;;;31.29;39.86;98824.53;7033937;28;20232;-87
2023/06/21 17:42:22;;;;;;;8.80;6.30;;;;;;;31.69;39.56;98894.56;7039540;28;20259;-86
2023/06/21 17:45:44;;;;;;;7.67;6.53;;;;;;;32.04;39.33;98896.75;7035672;28;20220;-86
2023/06/21 17:49:07;;;;;;;7.47;6.77;;;;;;;31.25;40.14;98898.00;7030045;28;20314;-84
2023/06/21 17:52:30;;;;;;;6.87;5.43;;;;;;;31.09;40.33;98881.03;7030641;28;20215;-87
2023/06/21 17:55:52;;;;;;;6.73;6.13;;;;;;;31.29;40.12;98896.16;7030994;28;20295;-88
2023/06/21 17:59:14;;;;;;;9.77;6.00;;;;;;;30.83;41.34;98880.34;7057722;28;20579;-84
2023/06/21 18:02:35;;;;;;;7.17;6.47;;;;;;;31.05;41.35;98882.03;7055120;28;20263;-90
2023/06/21 18:05:58;;;;;;;8.47;6.33;;;;;;;30.70;41.45;98875.00;7055562;28;20264;-87
2023/06/21 18:09:20;;;;;;;7.00;6.07;;;;;;;30.28;42.07;98801.63;7028503;28;20221;-86
2023/06/21 18:12:41;;;;;;;7.83;5.23;;;;;;;30.80;41.17;98846.78;7028594;28;20288;-86
2023/06/21 18:16:03;;;;;;;6.30;5.50;;;;;;;30.74;41.73;98857.31;7041373;28;20211;-85
2023/06/21 18:19:24;;;;;;;6.60;5.60;;;;;;;31.18;40.70;98864.22;7046946;28;20226;-86
2023/06/21 18:22:47;;;;;;;6.00;5.50;;;;;;;31.61;39.80;98857.22;7069894;28;20243;-85
2023/06/21 18:26:09;;;;;;;7.53;6.03;;;;;;;31.35;39.81;98839.06;7057414;28;20214;-85
2023/06/21 18:29:30;;;;;;;8.47;5.77;;;;;;;30.51;40.95;98757.66;7055170;28;20226;-86
2023/06/21 18:32:52;;;;;;;6.43;5.57;;;;;;;30.15;41.67;98754.56;7039413;28;20204;-87
2023/06/21 18:36:13;;;;;;;6.10;5.50;;;;;;;30.00;42.44;98852.41;7057258;28;20257;-87
2023/06/21 18:39:36;;;;;;;8.17;5.50;;;;;;;30.00;43.36;98874.63;6994419;28;20344;-87
2023/06/21 18:42:58;;;;;;;8.83;6.00;;;;;;;30.43;41.52;98808.63;6972842;28;20259;-86
2023/06/21 18:46:19;;;;;;;7.77;5.77;;;;;;;31.02;41.35;98841.72;6973446;28;20301;-86
2023/06/21 18:49:41;;;;;;;6.20;5.50;;;;;;;30.99;41.48;98842.41;6973070;28;20252;-85
2023/06/21 18:53:03;;;;;;;6.27;5.40;;;;;;;30.93;41.70;98849.34;6973654;28;20732;-86
2023/06/21 18:56:25;;;;;;;7.83;6.07;;;;;;;30.79;41.34;98806.97;6973849;28;20248;-86
2023/06/21 18:59:47;;;;;;;6.70;6.00;;;;;;;30.94;41.53;98836.19;6973310;28;20328;-86
2023/06/21 19:03:09;;;;;;;6.00;5.40;;;;;;;31.10;41.24;98848.41;6983552;28;20704;-86
2023/06/21 19:06:30;;;;;;;7.93;6.40;;;;;;;31.22;41.00;98854.91;6980048;28;20213;-85
2023/06/21 19:09:52;;;;;;;6.60;5.87;;;;;;;30.55;41.60;98820.66;6949501;28;20254;-86
2023/06/21 19:13:15;;;;;;;6.53;5.60;;;;;;;30.67;42.27;98839.47;6947057;28;20703;-86
2023/06/21 19:16:36;;;;;;;9.07;6.77;;;;;;;30.72;42.61;98831.75;6946333;28;20209;-85
2023/06/21 19:19:58;;;;;;;6.40;5.80;;;;;;;30.23;42.99;98798.22;6947179;28;20233;-86
2023/06/21 19:23:20;;;;;;;7.57;6.03;;;;;;;30.51;43.68;98868.97;6949015;28;20234;-85
2023/06/21 19:26:44;;;;;;;7.83;6.60;;;;;;;30.39;44.30;98852.16;6951720;28;20240;-85
2023/06/21 19:30:08;;;;;;;8.73;6.80;;;;;;;29.89;44.87;98818.56;6951968;28;20232;-87
2023/06/21 19:33:30;;;;;;;7.10;6.40;;;;;;;30.10;45.37;98868.78;6952631;28;20348;-85
2023/06/21 19:36:52;;;;;;;8.50;6.77;;;;;;;30.01;45.33;98885.44;6951847;28;20201;-85
2023/06/21 19:40:13;;;;;;;7.50;6.70;;;;;;;29.66;46.28;98869.94;6978784;28;20314;-85
2023/06/21 19:43:35;;;;;;;9.33;7.10;;;;;;;29.61;46.80;98885.97;6979240;28;20317;-85
2023/06/21 19:46:58;;;;;;;7.47;6.60;;;;;;;29.04;46.76;98814.97;6978499;28;20220;-85
2023/06/21 19:50:19;;;;;;;7.83;7.00;;;;;;;29.07;46.17;98801.25;6977785;28;20596;-85
2023/06/21 19:53:41;;;;;;;7.43;6.63;;;;;;;29.38;46.55;98881.66;6964374;28;20556;-85
2023/06/21 19:57:03;;;;;;;8.67;7.70;;;;;;;29.11;47.91;98882.78;6949424;28;20246;-85
2023/06/21 20:00:24;;;;;;;7.90;7.10;;;;;;;28.89;47.62;98854.28;6963574;28;20321;-85
2023/06/21 20:03:47;;;;;;;9.97;7.67;;;;;;;29.01;47.88;98871.16;6976526;28;20251;-84
2023/06/21 20:07:10;;;;;;;8.53;7.80;;;;;;;29.04;47.83;98878.81;6975653;28;20267;-85
2023/06/21 20:10:31;;;;;;;8.20;7.40;;;;;;;28.90;48.60;98881.69;6976227;28;20230;-85
2023/06/21 20:13:53;;;;;;;10.20;7.17;;;;;;;28.90;49.16;98886.44;6976982;28;20207;-85
2023/06/21 20:17:14;;;;;;;9.93;7.57;;;;;;;28.87;49.34;98887.06;6976406;28;20341;-86
2023/06/21 20:20:37;;;;;;;8.50;7.80;;;;;;;28.14;49.95;98801.72;6976711;28;20697;-86
2023/06/21 20:23:59;;;;;;;8.73;7.80;;;;;;;28.65;49.42;98876.88;6976941;28;20587;-85
2023/06/21 20:27:26;;;;;;;9.80;7.50;;;;;;;28.56;48.80;98861.34;6976371;28;20297;-86
2023/06/21 20:30:48;;;;;;;8.43;7.40;;;;;;;28.39;50.03;98851.00;6977796;28;20246;-86
2023/06/21 20:34:09;;;;;;;8.93;8.00;;;;;;;27.98;51.67;98885.63;6977316;28;20699;-86
2023/06/21 20:37:32;;;;;;;9.23;8.23;;;;;;;27.80;52.88;98875.53;6976963;28;20297;-86
2023/06/21 20:40:58;;;;;;;8.27;7.50;;;;;;;27.92;51.73;98857.22;6979187;28;20219;-86
2023/06/21 20:44:20;;;;;;;9.03;8.23;;;;;;;27.09;52.71;98779.44;6978186;28;20241;-86
2023/06/21 20:47:43;;;;;;;8.77;7.87;;;;;;;27.52;51.48;98764.00;6978206;28;20612;-86
2023/06/21 20:51:05;;;;;;;10.40;7.87;;;;;;;28.04;50.73;98828.91;6978669;28;20360;-86
2023/06/21 20:54:31;;;;;;;9.53;7.83;;;;;;;27.93;50.48;98788.72;6978449;28;20218;-86
2023/06/21 20:57:53;;;;;;;8.93;8.00;;;;;;;28.26;50.80;98815.78;6978754;28;20210;-86
2023/06/21 21:01:14;;;;;;;9.23;7.83;;;;;;;27.79;49.96;98808.19;6978918;28;20317;-86
2023/06/21 21:04:36;;;;;;;9.50;7.47;;;;;;;27.71;51.21;98831.09;6979494;28;20369;-87
2023/06/21 21:07:57;;;;;;;9.00;8.10;;;;;;;27.09;51.17;98746.22;6978350;28;20240;-86
2023/06/21 21:11:20;;;;;;;10.67;8.00;;;;;;;27.32;51.48;98794.94;6978580;28;20261;-86
2023/06/21 21:14:42;;;;;;;8.90;7.17;;;;;;;26.63;54.00;98775.22;6956951;28;20214;-85
2023/06/21 21:18:03;;;;;;;7.63;6.93;;;;;;;26.52;53.79;98773.78;6950629;28;20308;-85
2023/06/21 21:21:26;;;;;;;8.80;7.17;;;;;;;26.61;53.32;98772.78;6951149;28;20220;-85
2023/06/21 21:24:47;;;;;;;9.30;6.87;;;;;;;26.84;52.86;98798.56;6949180;28;20384;-86
2023/06/21 21:28:11;;;;;;;7.73;6.73;;;;;;;27.00;52.06;98811.75;6946996;28;20298;-86
2023/06/21 21:31:32;;;;;;;7.53;6.80;;;;;;;27.00;52.35;98814.53;6947714;28;20249;-85
2023/06/21 21:34:54;;;;;;;9.83;7.23;;;;;;;27.87;49.75;98831.56;6947465;28;20286;-85
2023/06/21 21:38:15;;;;;;;8.13;7.30;;;;;;;28.11;49.58;98835.63;6946094;28;20345;-86
2023/06/21 21:41:37;;;;;;;7.87;7.07;;;;;;;28.32;49.76;98833.13;6946490;28;20625;-86
2023/06/21 21:45:00;;;;;;;7.73;7.03;;;;;;;27.38;50.49;98718.13;6945741;28;20256;-85
2023/06/21 21:48:21;;;;;;;8.23;6.93;;;;;;;28.29;49.11;98769.97;6955280;28;20345;-85
2023/06/21 21:51:43;;;;;;;8.60;7.00;;;;;;;27.75;49.04;98696.34;6956002;28;20195;-85
2023/06/21 21:55:05;;;;;;;9.80;7.70;;;;;;;27.46;50.43;98759.72;6948472;28;20216;-85
2023/06/21 21:58:27;;;;;;;10.30;7.10;;;;;;;27.08;50.85;98671.81;6945966;28;20203;-85
2023/06/21 22:01:50;;;;;;;9.10;7.57;;;;;;;27.43;50.63;98749.25;6946793;28;20224;-85
2023/06/21 22:05:11;;;;;;;7.93;7.13;;;;;;;27.96;49.81;98788.09;6946957;28;20246;-85
2023/06/21 22:08:33;;;;;;;10.07;7.73;;;;;;;28.04;49.14;98760.44;6946154;28;20263;-86
2023/06/21 22:11:56;;;;;;;11.17;8.17;;;;;;;27.64;49.52;98711.59;6945968;28;20199;-86
2023/06/21 22:15:18;;;;;;;9.17;7.03;;;;;;;27.72;49.60;98708.06;6946322;28;20222;-85
2023/06/21 22:18:43;;;;;;;11.30;8.43;;;;;;;27.22;51.41;98763.94;6945870;28;20216;-86
2023/06/21 22:22:05;;;;;;;7.93;6.87;;;;;;;27.29;50.39;98675.69;6946134;28;20210;-86
2023/06/21 22:25:27;;;;;;;9.07;7.20;;;;;;;26.97;51.36;98698.09;6945790;28;20318;-85
2023/06/21 22:28:49;;;;;;;8.77;7.03;;;;;;;27.40;51.59;98761.00;6945003;28;20241;-85
2023/06/21 22:32:11;;;;;;;7.73;7.03;;;;;;;27.23;51.70;98769.16;6946014;28;20270;-86
2023/06/21 22:35:34;;;;;;;8.33;7.40;;;;;;;27.22;52.11;98775.84;6945679;28;20211;-86
2023/06/21 22:38:55;;;;;;;7.73;6.97;;;;;;;27.47;51.53;98780.75;6945106;28;20233;-85
2023/06/21 22:42:17;;;;;;;9.27;7.33;;;;;;;27.24;50.87;98726.50;6945910;28;20668;-85
2023/06/21 22:45:41;;;;;;;8.03;7.20;;;;;;;26.93;52.34;98760.72;6945426;28;20235;-86
2023/06/21 22:49:03;;;;;;;7.77;7.07;;;;;;;27.65;50.46;98765.06;6945424;28;20235;-86
2023/06/21 22:52:26;;;;;;;8.87;8.07;;;;;;;27.93;49.56;98780.41;6945395;28;20199;-85
2023/06/21 22:55:48;;;;;;;8.47;7.57;;;;;;;27.07;49.64;98662.66;6945356;28;20661;-86
2023/06/21 22:59:09;;;;;;;10.07;7.37;;;;;;;27.69;50.06;98755.81;6945264;28;20273;-85
2023/06/21 23:02:31;;;;;;;9.03;7.10;;;;;;;27.91;49.68;98757.75;6945244;28;20212;-86
2023/06/21 23:05:52;;;;;;;10.73;8.60;;;;;;;27.55;49.73;98726.53;6945220;28;20723;-86
2023/06/21 23:09:15;;;;;;;9.80;7.70;;;;;;;26.98;50.28;98670.09;6944626;28;20277;-86
2023/06/21 23:12:43;;;;;;;8.00;7.20;;;;;;;27.31;49.98;98699.16;6945459;28;20211;-86
2023/06/21 23:16:08;;;;;;;8.03;7.20;;;;;;;27.35;50.94;98761.09;6965908;28;20202;-86
2023/06/21 23:19:36;;;;;;;8.70;7.43;;;;;;;27.24;51.00;98750.59;6972366;28;20313;-86
2023/06/21 23:22:58;;;;;;;9.37;8.23;;;;;;;26.78;53.00;98781.25;6973013;28;20199;-86
2023/06/21 23:26:25;;;;;;;8.60;7.70;;;;;;;26.52;52.75;98694.41;6972568;28;20241;-86
2023/06/21 23:29:47;;;;;;;9.40;8.10;;;;;;;26.56;52.09;98691.88;6972202;28;20305;-87
2023/06/21 23:33:08;;;;;;;10.40;7.67;;;;;;;27.27;51.64;98783.19;6972668;28;20216;-86
2023/06/21 23:36:30;;;;;;;8.03;7.23;;;;;;;27.31;51.41;98782.25;6972346;28;20218;-87
2023/06/21 23:39:53;;;;;;;9.77;7.70;;;;;;;27.29;51.11;98750.47;6972677;28;20226;-86
2023/06/21 23:43:19;;;;;;;8.43;7.43;;;;;;;27.07;51.72;98762.31;6972275;28;20204;-87
2023/06/21 23:46:41;;;;;;;9.03;8.13;;;;;;;26.63;53.16;98765.00;6972332;28;20218;-85
2023/06/21 23:50:03;;;;;;;8.50;7.43;;;;;;;26.44;54.17;98752.38;6972417;28;20230;-87
2023/06/21 23:53:25;;;;;;;10.93;8.93;;;;;;;25.84;55.42;98759.91;6972405;28;20353;-86
2023/06/21 23:56:46;;;;;;;9.10;8.23;;;;;;;25.54;55.70;98674.84;6971746;28;20248;-86
